Back to top

Lander, WY weather

Hunt Field Airport, Lander, WY: 8/18/2022 04:53
Visibility10 statute milesclear sky
View 7-Day Forecast
Area Summary
Sky/CloudsSky Clear
Weather [last 24 hours]None
Pressure30.28 in.Hg (1026 hPa)
Dew Point37.9 °F (3.3 °C)
Relative Humidity39.5 %
Temperature63 °F (17.2 °C)red thermometer
Reading TimeMinimum to Maximum Temperature
6-hr ending 8/17@23:5373 °F to 90 °F (22.8 °C to 32.2 °C)
6-hr ending 8/17@17:5382.9 °F to 93 °F (28.3 °C to 33.9 °C)
6-hr ending 8/17@11:5357 °F to 84.9 °F (13.9 °C to 29.4 °C)
6-hr ending 8/17@05:5360.1 °F to 71.1 °F (15.6 °C to 21.7 °C)
24-hr ending 8/18@00:5357 °F to 93 °F (13.9 °C to 33.9 °C)
Wind4.6 MPH (4 KT) green arrow pointing 225 degrees
Wind FromSouthwest (230 Degrees)
Twilight Begins05:54Sunshine Yesterday
Sunrise06:25N/A
Sunset20:12
Twilight Ends20:42
METARKLND 181053Z AUTO 23004KT 10SM CLR 17/03 A3028 RMK AO2 SLP177 T01720033
Tags: